createdAt,value
2019-03-20T00:02:37.091Z,4.01
2019-03-20T00:06:42.734Z,4.08
2019-03-20T00:10:47.909Z,3.86
2019-03-20T00:14:53.167Z,3.93
2019-03-20T00:18:59.706Z,4.17
2019-03-20T00:23:04.975Z,3.96
2019-03-20T00:27:11.829Z,3.92
2019-03-20T00:31:17.203Z,3.87
2019-03-20T00:35:22.521Z,3.33
2019-03-20T00:39:27.774Z,3.13
2019-03-20T00:43:33.006Z,3.39
2019-03-20T00:47:41.990Z,3.29
2019-03-20T00:51:47.212Z,3.26
2019-03-20T00:55:52.444Z,2.83
2019-03-20T00:59:57.563Z,2.77
2019-03-20T01:04:02.820Z,2.96
2019-03-20T01:08:08.009Z,2.93
2019-03-20T01:12:13.264Z,2.81
2019-03-20T01:16:18.534Z,3.09
2019-03-20T01:20:23.744Z,3.21
2019-03-20T01:24:28.888Z,3.06
2019-03-20T01:28:34.056Z,3.47
2019-03-20T01:32:39.286Z,3.63
2019-03-20T01:36:44.571Z,3.59
2019-03-20T01:40:49.876Z,3.67
2019-03-20T01:44:55.645Z,3.44
2019-03-20T01:49:00.950Z,3.40
2019-03-20T01:53:06.205Z,3.24
2019-03-20T01:57:11.430Z,2.87
2019-03-20T02:01:16.594Z,2.87
2019-03-20T02:05:21.922Z,2.66
2019-03-20T02:09:27.268Z,2.60
2019-03-20T02:13:43.937Z,2.61
2019-03-20T02:17:49.275Z,2.92
2019-03-20T02:21:54.572Z,3.14
2019-03-20T02:25:59.853Z,2.93
2019-03-20T02:30:44.741Z,2.98
2019-03-20T02:39:39.379Z,3.09
2019-03-20T02:43:44.650Z,2.92
2019-03-20T02:47:51.451Z,2.79
2019-03-20T02:51:56.656Z,2.85
2019-03-20T02:56:01.787Z,2.87
2019-03-20T03:00:47.039Z,2.88
2019-03-20T03:04:52.234Z,2.92
2019-03-20T03:08:57.436Z,2.87
2019-03-20T03:13:02.817Z,2.88
2019-03-20T03:17:07.984Z,2.94
2019-03-20T03:21:13.116Z,2.68
2019-03-20T03:25:20.922Z,2.73
2019-03-20T03:29:26.304Z,2.64
2019-03-20T03:33:31.670Z,2.54
2019-03-20T03:37:36.823Z,2.57
2019-03-20T03:41:42.013Z,2.50
2019-03-20T03:45:47.538Z,2.27
2019-03-20T03:49:52.792Z,2.46
2019-03-20T03:53:57.930Z,2.38
2019-03-20T03:58:22.262Z,2.39
2019-03-20T04:02:28.692Z,2.50
2019-03-20T04:06:35.886Z,2.51
2019-03-20T04:10:59.923Z,2.24
2019-03-20T04:15:05.454Z,2.41
2019-03-20T04:19:10.697Z,2.58
2019-03-20T04:23:27.877Z,2.55
2019-03-20T04:27:33.130Z,2.82
2019-03-20T04:31:38.323Z,2.76
2019-03-20T04:36:02.630Z,2.90
2019-03-20T04:40:19.048Z,2.99
2019-03-20T04:44:24.188Z,2.99
2019-03-20T04:48:29.748Z,3.07
2019-03-20T04:52:35.058Z,3.13
2019-03-20T04:56:41.825Z,3.27
2019-03-20T05:00:47.736Z,3.25
2019-03-20T05:04:52.838Z,3.33
2019-03-20T05:08:58.068Z,3.36
2019-03-20T05:13:03.244Z,3.53
2019-03-20T05:17:08.464Z,3.45
2019-03-20T05:21:13.708Z,3.59
2019-03-20T05:25:18.947Z,3.71
2019-03-20T05:29:24.298Z,3.57
2019-03-20T05:33:30.944Z,3.58
2019-03-20T05:37:36.301Z,3.69
2019-03-20T05:41:49.345Z,3.71
2019-03-20T05:45:56.517Z,3.70
2019-03-20T05:50:01.777Z,3.73
2019-03-20T05:54:07.114Z,3.85
2019-03-20T05:58:12.430Z,3.94
2019-03-20T06:02:17.688Z,4.16
2019-03-20T06:06:22.864Z,4.15
2019-03-20T06:10:28.763Z,4.43
2019-03-20T06:15:15.651Z,4.25
2019-03-20T06:19:20.894Z,4.34
2019-03-20T06:23:27.892Z,4.38
2019-03-20T06:27:33.212Z,4.47
2019-03-20T06:31:41.697Z,4.42
2019-03-20T06:36:28.169Z,4.43
2019-03-20T06:40:36.612Z,4.73
2019-03-20T06:49:20.722Z,4.79
2019-03-20T06:53:28.314Z,4.68
2019-03-20T06:57:33.481Z,4.94
2019-03-20T07:01:38.725Z,4.94
2019-03-20T07:11:16.074Z,5.39
2019-03-20T07:15:21.226Z,5.58
2019-03-20T07:19:26.488Z,5.60
2019-03-20T07:23:31.697Z,5.87
2019-03-20T07:27:38.513Z,6.20
2019-03-20T07:31:43.698Z,6.37
2019-03-20T07:35:48.844Z,6.44
2019-03-20T07:39:54.322Z,6.39
2019-03-20T07:43:59.490Z,6.69
2019-03-20T07:48:04.619Z,6.71
2019-03-20T07:52:09.868Z,6.88
2019-03-20T07:56:15.009Z,6.94
2019-03-20T08:00:20.111Z,7.24
2019-03-20T08:04:25.232Z,7.25
2019-03-20T08:08:30.446Z,7.50
2019-03-20T08:12:35.646Z,7.49
2019-03-20T08:16:40.872Z,7.75
2019-03-20T08:20:48.032Z,8.03
2019-03-20T08:24:55.642Z,8.19
2019-03-20T08:29:05.671Z,8.54
2019-03-20T08:33:11.594Z,8.45
2019-03-20T08:37:16.773Z,8.44
2019-03-20T08:41:21.975Z,8.36
2019-03-20T08:45:27.166Z,8.72
2019-03-20T08:49:32.368Z,8.93
2019-03-20T08:53:37.566Z,9.23
2019-03-20T08:57:42.983Z,9.28
2019-03-20T09:01:50.366Z,9.29
2019-03-20T09:06:07.457Z,9.51
2019-03-20T09:10:10.220Z,9.34
2019-03-20T09:14:15.367Z,9.51
2019-03-20T09:18:20.550Z,9.67
2019-03-20T09:22:44.849Z,10.22
2019-03-20T09:26:50.104Z,10.44
2019-03-20T09:30:55.235Z,10.11
2019-03-20T09:35:00.525Z,10.25
2019-03-20T09:39:08.226Z,10.55
2019-03-20T09:43:13.828Z,10.64
2019-03-20T09:47:20.202Z,11.15
2019-03-20T09:51:38.978Z,10.96
2019-03-20T09:55:46.102Z,11.13
2019-03-20T09:59:53.054Z,11.31
2019-03-20T10:03:58.391Z,11.04
2019-03-20T10:08:22.750Z,11.08
2019-03-20T10:12:27.960Z,11.12
2019-03-20T10:16:33.460Z,11.35
2019-03-20T10:20:38.839Z,11.53
2019-03-20T10:24:44.094Z,11.74
2019-03-20T10:28:50.837Z,11.66
2019-03-20T10:32:56.133Z,11.98
2019-03-20T10:37:02.503Z,12.14
2019-03-20T10:41:07.727Z,12.19
2019-03-20T10:45:13.770Z,11.88
2019-03-20T10:49:18.970Z,12.25
2019-03-20T10:53:24.082Z,11.61
2019-03-20T10:57:29.188Z,11.78
2019-03-20T11:01:43.964Z,12.10
2019-03-20T11:05:49.142Z,12.02
2019-03-20T11:09:54.339Z,12.14
2019-03-20T11:13:59.578Z,12.33
2019-03-20T11:18:05.230Z,12.42
2019-03-20T11:22:18.775Z,12.25
2019-03-20T11:26:38.007Z,12.20
2019-03-20T11:30:43.526Z,12.31
2019-03-20T11:34:48.662Z,12.76
2019-03-20T11:38:53.796Z,13.24
2019-03-20T11:47:48.794Z,13.42
2019-03-20T11:56:25.962Z,13.12
2019-03-20T12:00:31.111Z,13.38
2019-03-20T12:04:36.232Z,13.86
2019-03-20T12:08:41.375Z,13.70
2019-03-20T12:12:46.520Z,13.22
2019-03-20T12:16:51.739Z,13.92
2019-03-20T12:20:57.054Z,13.91
2019-03-20T12:25:02.226Z,13.13
2019-03-20T12:29:16.034Z,13.57
2019-03-20T12:33:21.228Z,13.85
2019-03-20T12:37:27.428Z,13.05
2019-03-20T12:41:32.635Z,12.92
2019-03-20T12:45:37.799Z,12.76
2019-03-20T12:49:43.016Z,12.89
2019-03-20T12:53:48.184Z,13.41
2019-03-20T13:01:57.130Z,13.47
2019-03-20T13:06:02.465Z,13.08
2019-03-20T13:10:09.823Z,12.85
2019-03-20T13:19:03.670Z,13.07
2019-03-20T13:23:12.149Z,12.92
2019-03-20T13:27:17.335Z,13.40
2019-03-20T13:31:23.123Z,13.31
2019-03-20T13:35:28.337Z,13.19
2019-03-20T13:39:33.486Z,13.33
2019-03-20T13:43:38.709Z,13.10
2019-03-20T13:47:43.903Z,13.03
2019-03-20T13:51:49.137Z,13.31
2019-03-20T13:55:54.329Z,13.43
2019-03-20T13:59:59.456Z,13.96
2019-03-20T14:04:06.330Z,13.95
2019-03-20T14:08:11.534Z,13.86
2019-03-20T14:12:16.645Z,14.01
2019-03-20T14:16:21.848Z,13.66
2019-03-20T14:20:26.989Z,13.76
2019-03-20T14:24:32.233Z,13.45
2019-03-20T14:28:37.461Z,13.71
2019-03-20T14:32:55.270Z,13.46
2019-03-20T14:37:00.511Z,13.38
2019-03-20T14:41:05.833Z,13.48
2019-03-20T14:45:12.791Z,13.55
2019-03-20T14:49:43.833Z,13.72
2019-03-20T14:53:57.731Z,13.75
2019-03-20T14:58:03.779Z,13.49
2019-03-20T15:02:10.423Z,13.49
2019-03-20T15:06:17.223Z,13.42
2019-03-20T15:10:22.455Z,13.39
2019-03-20T15:14:27.655Z,13.53
2019-03-20T15:18:32.800Z,13.39
2019-03-20T15:22:39.104Z,13.25
2019-03-20T15:26:44.213Z,13.43
2019-03-20T15:30:49.416Z,13.34
2019-03-20T15:34:54.668Z,13.40
2019-03-20T15:39:01.456Z,13.39
2019-03-20T15:43:08.232Z,13.43
2019-03-20T15:47:14.860Z,13.28
2019-03-20T15:51:20.111Z,14.25
2019-03-20T15:55:27.724Z,15.19
2019-03-20T15:59:32.914Z,15.47
2019-03-20T16:03:38.808Z,15.39
2019-03-20T16:07:43.934Z,14.67
2019-03-20T16:11:49.156Z,14.24
2019-03-20T16:15:54.363Z,14.23
2019-03-20T16:20:01.099Z,14.45
2019-03-20T16:24:06.413Z,14.47
2019-03-20T16:28:11.993Z,13.77
2019-03-20T16:36:33.422Z,13.43
2019-03-20T16:40:38.856Z,13.76
2019-03-20T16:44:45.299Z,14.03
2019-03-20T16:48:50.599Z,13.66
2019-03-20T16:52:56.945Z,13.83
2019-03-20T16:57:02.505Z,13.59
2019-03-20T17:01:07.675Z,13.41
2019-03-20T17:05:12.894Z,13.16
2019-03-20T17:09:18.406Z,13.13
2019-03-20T17:13:23.572Z,12.98
2019-03-20T17:17:28.763Z,12.86
2019-03-20T17:21:33.908Z,12.74
2019-03-20T17:25:39.193Z,12.48
2019-03-20T17:29:58.365Z,12.43
2019-03-20T17:34:10.398Z,12.39
2019-03-20T17:38:15.545Z,12.29
2019-03-20T17:42:20.624Z,12.13
2019-03-20T17:46:25.931Z,12.19
2019-03-20T17:50:42.456Z,12.02
2019-03-20T17:54:47.574Z,12.05
2019-03-20T17:58:52.760Z,12.24
2019-03-20T18:03:02.464Z,12.00
2019-03-20T18:11:59.216Z,11.90
2019-03-20T18:16:04.417Z,11.90
2019-03-20T18:20:11.141Z,11.85
2019-03-20T18:24:16.448Z,11.79
2019-03-20T18:28:21.853Z,11.57
2019-03-20T18:32:26.998Z,11.67
2019-03-20T18:40:52.446Z,11.45
2019-03-20T18:44:57.605Z,11.53
2019-03-20T18:49:02.783Z,11.48
2019-03-20T18:53:09.597Z,11.32
2019-03-20T18:57:14.846Z,11.26
2019-03-20T19:01:20.493Z,11.19
2019-03-20T19:05:56.268Z,11.35
2019-03-20T19:10:01.633Z,11.35
2019-03-20T19:14:07.271Z,10.98
2019-03-20T19:18:23.906Z,10.86
2019-03-20T19:22:41.227Z,10.91
2019-03-20T19:26:46.997Z,10.58
2019-03-20T19:30:52.647Z,10.71
2019-03-20T19:39:38.981Z,10.58
2019-03-20T19:43:46.124Z,9.90
2019-03-20T19:47:51.306Z,10.29
2019-03-20T19:51:58.837Z,10.12
2019-03-20T19:56:07.288Z,10.42
2019-03-20T20:00:54.389Z,10.31
2019-03-20T20:04:59.848Z,10.15
2019-03-20T20:18:49.664Z,10.17
2019-03-20T20:32:38.008Z,9.31
2019-03-20T21:00:54.534Z,8.45
2019-03-20T21:05:01.253Z,8.66
2019-03-20T21:09:08.771Z,8.85
2019-03-20T21:13:13.973Z,8.61
2019-03-20T21:17:58.934Z,8.29
2019-03-20T21:22:42.286Z,8.30
2019-03-20T21:27:38.367Z,8.14
2019-03-20T21:32:13.569Z,8.28
2019-03-20T21:36:57.169Z,7.84
2019-03-20T21:41:40.705Z,7.63
2019-03-20T21:46:12.276Z,7.60
2019-03-20T21:50:56.821Z,7.30
2019-03-20T21:55:40.198Z,7.44
2019-03-20T22:00:19.256Z,7.37
2019-03-20T22:08:56.174Z,7.71
2019-03-20T22:13:39.476Z,7.67
2019-03-20T22:23:30.461Z,7.53
2019-03-20T22:28:13.934Z,7.13
2019-03-20T22:32:30.485Z,6.98
2019-03-20T22:36:39.687Z,6.98
2019-03-20T22:41:22.986Z,7.00
2019-03-20T22:46:06.392Z,7.05
2019-03-20T22:50:36.108Z,7.43
2019-03-20T22:55:22.262Z,7.08
2019-03-20T22:59:28.052Z,7.05
2019-03-20T23:03:38.311Z,7.19
2019-03-20T23:07:44.009Z,6.70
2019-03-20T23:11:49.710Z,6.74
2019-03-20T23:15:56.022Z,6.73
2019-03-20T23:20:21.919Z,6.75
2019-03-20T23:24:27.585Z,6.86
2019-03-20T23:28:33.296Z,6.71
2019-03-20T23:32:39.018Z,6.91
2019-03-20T23:36:44.746Z,6.61
2019-03-20T23:40:50.964Z,6.48
2019-03-20T23:44:58.433Z,6.46
2019-03-20T23:49:24.687Z,6.35
2019-03-20T23:53:30.408Z,6.26
2019-03-20T23:57:36.141Z,6.17
